Time,TemperatureF,DewpointF,PressureIn,WindDirection,WindDirectionDegrees,WindSpeedMPH,WindSpeedGustMPH,Humidity,HourlyPrecipIn,Conditions,Clouds,dailyrainin,SoftwareType,DateUTC
2013-06-21 00:03:00,53.1,45.7,30.06,SW,225,0.0,0.9,76,0.00,,---,0.00,VWS V14.01,2013-06-21 07:03:00,
2013-06-21 00:08:00,52.9,45.5,30.06,SW,225,0.0,1.6,76,0.00,,---,0.00,VWS V14.01,2013-06-21 07:08:00,
2013-06-21 00:13:00,52.7,45.4,30.06,SSW,202,0.0,1.1,76,0.00,,---,0.00,VWS V14.01,2013-06-21 07:13:00,
2013-06-21 00:18:00,52.7,45.7,30.06,South,180,1.6,2.0,77,0.00,,---,0.00,VWS V14.01,2013-06-21 07:18:00,
2013-06-21 00:23:00,52.7,45.7,30.06,SSW,202,0.0,2.7,77,0.00,,---,0.00,VWS V14.01,2013-06-21 07:23:00,
2013-06-21 00:28:00,52.7,46.0,30.06,South,180,0.9,2.5,78,0.00,,---,0.00,VWS V14.01,2013-06-21 07:28:00,
2013-06-21 00:38:00,52.7,46.4,30.06,East,90,0.0,2.2,79,0.00,,---,0.00,VWS V14.01,2013-06-21 07:38:00,
2013-06-21 00:43:00,52.7,46.7,30.06,SSW,202,0.0,3.8,80,0.00,,---,0.00,VWS V14.01,2013-06-21 07:43:00,
2013-06-21 00:53:00,52.3,46.0,30.06,WNW,292,0.0,2.5,79,0.00,,---,0.00,VWS V14.01,2013-06-21 07:53:00,
2013-06-21 00:58:00,52.2,45.8,30.06,West,270,0.0,0.0,79,0.00,,---,0.00,VWS V14.01,2013-06-21 07:58:00,
2013-06-21 01:03:00,52.0,45.7,30.06,WSW,248,0.0,0.0,79,0.00,,---,0.00,VWS V14.01,2013-06-21 08:03:00,
2013-06-21 01:08:00,51.8,45.5,30.06,SSW,202,0.0,0.0,79,0.00,,---,0.00,VWS V14.01,2013-06-21 08:08:00,
2013-06-21 01:13:00,51.8,45.5,30.06,WSW,248,0.0,0.9,79,0.00,,---,0.00,VWS V14.01,2013-06-21 08:13:00,
2013-06-21 01:18:00,51.6,45.3,30.06,ESE,112,0.0,1.3,79,0.00,,---,0.00,VWS V14.01,2013-06-21 08:18:00,
2013-06-21 01:23:00,51.4,45.5,30.06,ESE,112,0.0,0.9,80,0.00,,---,0.00,VWS V14.01,2013-06-21 08:23:00,
2013-06-21 01:28:00,51.4,45.5,30.06,ESE,112,0.0,0.0,80,0.00,,---,0.00,VWS V14.01,2013-06-21 08:28:00,
2013-06-21 01:33:00,51.3,45.3,30.06,ESE,112,0.0,0.0,80,0.00,,---,0.00,VWS V14.01,2013-06-21 08:33:00,
2013-06-21 01:38:00,51.1,45.1,30.06,ENE,68,0.9,1.1,80,0.00,,---,0.00,VWS V14.01,2013-06-21 08:38:00,
2013-06-21 01:43:00,50.9,45.0,30.06,ENE,68,0.0,1.1,80,0.00,,---,0.00,VWS V14.01,2013-06-21 08:43:00,
2013-06-21 01:48:00,50.9,45.3,30.06,East,90,0.0,1.3,81,0.00,,---,0.00,VWS V14.01,2013-06-21 08:48:00,
2013-06-21 01:53:00,51.3,46.6,30.06,South,180,1.1,4.0,84,0.00,,---,0.00,VWS V14.01,2013-06-21 08:53:00,
2013-06-21 01:58:00,51.4,47.1,30.06,ESE,112,3.1,3.4,85,0.00,,---,0.00,VWS V14.01,2013-06-21 08:58:00,
2013-06-21 02:04:00,51.6,47.6,30.06,SE,135,1.1,3.4,86,0.00,,---,0.00,VWS V14.01,2013-06-21 09:04:00,
2013-06-21 02:13:00,51.6,47.9,30.06,NE,45,1.3,3.1,87,0.00,,---,0.00,VWS V14.01,2013-06-21 09:13:00,
2013-06-21 02:18:00,51.6,47.6,30.06,East,90,1.1,3.4,86,0.00,,---,0.00,VWS V14.01,2013-06-21 09:18:00,
2013-06-21 02:23:00,51.6,47.9,30.06,SSE,158,0.0,2.7,87,0.00,,---,0.00,VWS V14.01,2013-06-21 09:23:00,
2013-06-21 02:28:00,51.6,48.2,30.06,ESE,112,0.9,3.6,88,0.00,,---,0.00,VWS V14.01,2013-06-21 09:28:00,
2013-06-21 02:33:00,51.6,47.9,30.06,SE,135,0.0,2.7,87,0.00,,---,0.00,VWS V14.01,2013-06-21 09:33:00,
2013-06-21 02:38:00,51.8,48.4,30.03,ENE,68,0.9,4.3,88,0.00,,---,0.00,VWS V14.01,2013-06-21 09:38:00,
2013-06-21 02:43:00,51.8,48.4,30.03,ESE,112,0.0,3.8,88,0.00,,---,0.00,VWS V14.01,2013-06-21 09:43:00,
2013-06-21 02:53:00,52.2,49.0,30.03,ESE,112,2.5,3.6,89,0.00,,---,0.00,VWS V14.01,2013-06-21 09:53:00,
2013-06-21 02:58:00,52.5,49.7,30.03,WSW,248,1.3,3.1,90,0.00,,---,0.00,VWS V14.01,2013-06-21 09:58:00,
2013-06-21 03:03:00,52.7,49.8,30.03,ESE,112,3.4,4.3,90,0.00,,---,0.00,VWS V14.01,2013-06-21 10:03:00,
2013-06-21 03:08:00,52.7,49.8,30.03,SSE,158,2.7,3.8,90,0.00,,---,0.00,VWS V14.01,2013-06-21 10:08:00,
2013-06-21 03:13:00,52.9,49.7,30.03,SW,225,2.2,3.1,89,0.00,,---,0.00,VWS V14.01,2013-06-21 10:13:00,
2013-06-21 03:18:00,52.9,49.4,30.03,SSW,202,3.1,3.4,88,0.00,,---,0.00,VWS V14.01,2013-06-21 10:18:00,
2013-06-21 03:23:00,52.9,49.4,30.03,SE,135,0.0,3.8,88,0.00,,---,0.00,VWS V14.01,2013-06-21 10:23:00,
2013-06-21 03:28:00,52.9,49.1,30.03,East,90,2.5,3.6,87,0.00,,---,0.00,VWS V14.01,2013-06-21 10:28:00,
2013-06-21 03:33:00,52.7,49.0,30.03,SE,135,2.5,4.3,87,0.00,,---,0.00,VWS V14.01,2013-06-21 10:33:00,
2013-06-21 03:38:00,52.5,48.5,30.03,SSW,202,0.9,4.3,86,0.00,,---,0.00,VWS V14.01,2013-06-21 10:38:00,
2013-06-21 03:43:00,52.7,48.6,30.03,SSE,158,3.1,3.1,86,0.00,,---,0.00,VWS V14.01,2013-06-21 10:43:00,
2013-06-21 03:48:00,52.7,48.6,30.03,ESE,112,0.9,4.3,86,0.00,,---,0.00,VWS V14.01,2013-06-21 10:48:00,
2013-06-21 03:58:00,52.7,48.6,30.03,ESE,112,0.0,3.6,86,0.00,,---,0.00,VWS V14.01,2013-06-21 10:58:00,
2013-06-21 04:03:00,52.7,48.6,30.03,SSE,158,0.9,3.4,86,0.00,,---,0.00,VWS V14.01,2013-06-21 11:03:00,
2013-06-21 04:08:00,52.7,48.6,30.03,South,180,1.1,4.0,86,0.00,,---,0.00,VWS V14.01,2013-06-21 11:08:00,
2013-06-21 04:13:00,52.7,48.6,30.03,ESE,112,1.3,2.5,86,0.00,,---,0.00,VWS V14.01,2013-06-21 11:13:00,
2013-06-21 04:18:00,52.7,48.3,30.03,WSW,248,0.9,3.4,85,0.00,,---,0.00,VWS V14.01,2013-06-21 11:18:00,
2013-06-21 04:23:00,52.7,48.3,30.03,SSW,202,0.0,2.9,85,0.00,,---,0.00,VWS V14.01,2013-06-21 11:23:00,
2013-06-21 04:33:00,52.5,48.2,30.03,WNW,292,0.0,2.2,85,0.00,,---,0.00,VWS V14.01,2013-06-21 11:33:00,
2013-06-21 04:38:00,52.5,48.2,30.03,WSW,248,0.0,0.0,85,0.00,,---,0.00,VWS V14.01,2013-06-21 11:38:00,
2013-06-21 04:43:00,52.3,48.0,30.03,SSE,158,0.0,2.2,85,0.00,,---,0.00,VWS V14.01,2013-06-21 11:43:00,
2013-06-21 04:48:00,52.3,48.0,30.03,SSE,158,0.0,3.1,85,0.00,,---,0.00,VWS V14.01,2013-06-21 11:48:00,
2013-06-21 04:53:00,52.2,47.8,30.03,ENE,68,0.0,2.0,85,0.00,,---,0.00,VWS V14.01,2013-06-21 11:53:00,
2013-06-21 04:58:00,52.0,47.6,30.03,ENE,68,0.0,0.0,85,0.00,,---,0.00,VWS V14.01,2013-06-21 11:58:00,
2013-06-21 05:08:00,51.6,47.3,30.03,ENE,68,0.0,0.0,85,0.00,,---,0.00,VWS V14.01,2013-06-21 12:08:00,
2013-06-21 05:13:00,51.4,47.1,30.03,ESE,112,0.0,0.0,85,0.00,,---,0.00,VWS V14.01,2013-06-21 12:13:00,
2013-06-21 05:18:00,51.6,47.6,30.03,East,90,0.0,0.0,86,0.00,,---,0.00,VWS V14.01,2013-06-21 12:18:00,
2013-06-21 05:23:00,51.4,47.4,30.03,East,90,0.0,0.0,86,0.00,,---,0.00,VWS V14.01,2013-06-21 12:23:00,
2013-06-21 05:28:00,51.4,47.4,30.03,East,90,0.0,0.0,86,0.00,,---,0.00,VWS V14.01,2013-06-21 12:28:00,
2013-06-21 05:33:00,51.4,47.4,30.03,East,90,0.0,2.5,86,0.00,,---,0.00,VWS V14.01,2013-06-21 12:33:00,
2013-06-21 05:44:00,51.1,46.7,30.03,East,90,0.0,1.6,85,0.00,,---,0.00,VWS V14.01,2013-06-21 12:44:00,
2013-06-21 05:53:00,50.7,46.7,30.03,NE,45,0.0,0.9,86,0.00,,---,0.00,VWS V14.01,2013-06-21 12:53:00,
2013-06-21 05:58:00,50.7,46.7,30.03,NE,45,0.0,0.0,86,0.00,,---,0.00,VWS V14.01,2013-06-21 12:58:00,
2013-06-21 06:03:00,50.5,46.5,30.03,NE,45,0.0,0.0,86,0.00,,---,0.00,VWS V14.01,2013-06-21 13:03:00,
2013-06-21 06:08:00,50.2,45.8,30.03,NE,45,0.0,0.0,85,0.00,,---,0.00,VWS V14.01,2013-06-21 13:08:00,
2013-06-21 06:18:00,50.0,46.0,30.03,NE,45,0.0,0.0,86,0.00,,---,0.00,VWS V14.01,2013-06-21 13:18:00,
2013-06-21 06:23:00,50.0,46.0,30.03,NE,45,0.0,0.0,86,0.00,,---,0.00,VWS V14.01,2013-06-21 13:23:00,
2013-06-21 06:28:00,50.0,46.3,30.03,NNW,338,0.0,2.2,87,0.00,,---,0.00,VWS V14.01,2013-06-21 13:28:00,
2013-06-21 06:33:00,50.0,46.0,30.03,ENE,68,0.0,0.0,86,0.00,,---,0.00,VWS V14.01,2013-06-21 13:33:00,
2013-06-21 06:38:00,51.6,48.8,30.06,ENE,68,0.0,0.0,90,0.00,,---,0.00,VWS V14.01,2013-06-21 13:38:00,
2013-06-21 06:44:00,51.6,48.5,30.06,NNE,22,2.0,3.1,89,0.00,,---,0.00,VWS V14.01,2013-06-21 13:44:00,
2013-06-21 06:53:00,51.3,48.1,30.03,North,0,0.0,0.0,89,0.00,,---,0.00,VWS V14.01,2013-06-21 13:53:00,
2013-06-21 06:58:00,51.1,47.7,30.03,North,0,0.0,0.0,88,0.00,,---,0.00,VWS V14.01,2013-06-21 13:58:00,
2013-06-21 07:03:00,51.1,47.7,30.03,North,0,0.0,0.0,88,0.00,,---,0.00,VWS V14.01,2013-06-21 14:03:00,
2013-06-21 07:13:00,51.3,47.8,30.06,East,90,0.0,0.0,88,0.00,,---,0.00,VWS V14.01,2013-06-21 14:13:00,
2013-06-21 07:23:00,52.2,49.0,30.06,NNW,338,2.5,2.5,89,0.00,,---,0.00,VWS V14.01,2013-06-21 14:23:00,
2013-06-21 07:28:00,53.2,50.4,30.06,North,0,0.0,2.5,90,0.00,,---,0.00,VWS V14.01,2013-06-21 14:28:00,
2013-06-21 07:38:00,58.5,54.9,30.06,North,0,0.0,2.2,88,0.00,,---,0.00,VWS V14.01,2013-06-21 14:38:00,
2013-06-21 07:43:00,59.7,55.2,30.06,NNW,338,2.0,2.2,85,0.00,,---,0.00,VWS V14.01,2013-06-21 14:43:00,
2013-06-21 07:53:00,62.2,55.7,30.06,NW,315,0.9,1.3,79,0.00,,---,0.00,VWS V14.01,2013-06-21 14:53:00,
2013-06-21 08:03:00,63.9,54.3,30.06,WSW,248,0.0,1.3,71,0.00,,---,0.00,VWS V14.01,2013-06-21 15:03:00,
2013-06-21 08:08:00,64.0,52.9,30.06,WSW,248,3.4,3.4,67,0.00,,---,0.00,VWS V14.01,2013-06-21 15:08:00,
2013-06-21 08:13:00,64.2,50.5,30.06,WSW,248,0.0,3.4,61,0.00,,---,0.00,VWS V14.01,2013-06-21 15:13:00,
2013-06-21 08:18:00,64.8,51.0,30.06,SW,225,1.1,2.5,61,0.00,,---,0.00,VWS V14.01,2013-06-21 15:18:00,
2013-06-21 08:23:00,65.3,50.2,30.06,ENE,68,0.0,2.9,58,0.00,,---,0.00,VWS V14.01,2013-06-21 15:23:00,
2013-06-21 08:28:00,65.7,49.6,30.06,SSE,158,0.0,3.1,56,0.00,,---,0.00,VWS V14.01,2013-06-21 15:28:00,
2013-06-21 08:38:00,66.2,47.6,30.06,SW,225,1.1,3.6,51,0.00,,---,0.00,VWS V14.01,2013-06-21 15:38:00,
2013-06-21 08:43:00,66.7,47.5,30.06,SSW,202,0.0,2.7,50,0.00,,---,0.00,VWS V14.01,2013-06-21 15:43:00,
2013-06-21 08:48:00,67.1,47.3,30.06,WSW,248,2.2,4.3,49,0.00,,---,0.00,VWS V14.01,2013-06-21 15:48:00,
2013-06-21 08:53:00,67.3,47.5,30.06,NNE,22,1.3,2.7,49,0.00,,---,0.00,VWS V14.01,2013-06-21 15:53:00,
2013-06-21 08:58:00,67.6,47.3,30.06,WSW,248,2.7,3.4,48,0.00,,---,0.00,VWS V14.01,2013-06-21 15:58:00,
2013-06-21 09:03:00,68.0,46.5,30.06,SSE,158,1.6,3.6,46,0.00,,---,0.00,VWS V14.01,2013-06-21 16:03:00,
2013-06-21 09:14:00,69.1,46.3,30.06,SSW,202,3.1,5.4,44,0.00,,---,0.00,VWS V14.01,2013-06-21 16:14:00,
2013-06-21 09:23:00,69.6,46.8,30.06,West,270,0.0,3.1,44,0.00,,---,0.00,VWS V14.01,2013-06-21 16:23:00,
2013-06-21 09:28:00,70.5,46.3,30.06,SE,135,1.1,4.3,42,0.00,,---,0.00,VWS V14.01,2013-06-21 16:28:00,
2013-06-21 09:33:00,71.1,46.8,30.06,ESE,112,1.6,3.8,42,0.00,,---,0.00,VWS V14.01,2013-06-21 16:33:00,
2013-06-21 09:38:00,72.0,47.0,30.06,NNW,338,0.0,3.1,41,0.00,,---,0.00,VWS V14.01,2013-06-21 16:38:00,
2013-06-21 09:43:00,72.5,47.5,30.06,SSW,202,1.1,3.8,41,0.00,,---,0.00,VWS V14.01,2013-06-21 16:43:00,
2013-06-21 09:48:00,72.9,45.1,30.06,NW,315,4.7,4.7,37,0.00,,---,0.00,VWS V14.01,2013-06-21 16:48:00,
2013-06-21 09:53:00,73.2,46.1,30.06,SSW,202,2.2,4.7,38,0.00,,---,0.00,VWS V14.01,2013-06-21 16:53:00,
2013-06-21 09:58:00,74.5,47.2,30.06,North,0,0.0,2.5,38,0.00,,---,0.00,VWS V14.01,2013-06-21 16:58:00,
2013-06-21 10:03:00,75.2,47.2,30.06,SSW,202,1.6,3.4,37,0.00,,---,0.00,VWS V14.01,2013-06-21 17:03:00,
2013-06-21 10:09:00,75.2,44.9,30.06,WSW,248,2.0,4.3,34,0.00,,---,0.00,VWS V14.01,2013-06-21 17:09:00,
2013-06-21 10:18:00,76.6,47.0,30.06,WSW,248,1.3,2.2,35,0.00,,---,0.00,VWS V14.01,2013-06-21 17:18:00,
2013-06-21 10:28:00,76.3,45.1,30.06,SSW,202,2.9,4.3,33,0.00,,---,0.00,VWS V14.01,2013-06-21 17:28:00,
2013-06-21 10:34:00,75.6,43.7,30.06,South,180,4.9,7.2,32,0.00,,---,0.00,VWS V14.01,2013-06-21 17:34:00,
2013-06-21 10:48:00,76.6,44.6,30.06,SSW,202,3.4,4.9,32,0.00,,---,0.00,VWS V14.01,2013-06-21 17:48:00,
2013-06-21 10:53:00,77.2,45.1,30.06,SSE,158,3.8,4.9,32,0.00,,---,0.00,VWS V14.01,2013-06-21 17:53:00,
2013-06-21 10:58:00,77.2,44.2,30.06,NW,315,1.3,7.4,31,0.00,,---,0.00,VWS V14.01,2013-06-21 17:58:00,
2013-06-21 11:08:00,79.0,45.8,30.06,SSW,202,2.9,4.0,31,0.00,,---,0.00,VWS V14.01,2013-06-21 18:08:00,
2013-06-21 11:13:00,80.2,46.0,30.06,South,180,1.1,2.9,30,0.00,,---,0.00,VWS V14.01,2013-06-21 18:13:00,
2013-06-21 11:23:00,80.4,46.2,30.06,WSW,248,4.0,4.0,30,0.00,,---,0.00,VWS V14.01,2013-06-21 18:23:00,
2013-06-21 11:28:00,80.6,43.6,30.06,SSE,158,7.2,7.2,27,0.00,,---,0.00,VWS V14.01,2013-06-21 18:28:00,
2013-06-21 11:33:00,81.5,45.3,30.06,SSE,158,2.7,7.2,28,0.00,,---,0.00,VWS V14.01,2013-06-21 18:33:00,
2013-06-21 11:38:00,81.7,44.5,30.06,ESE,112,3.4,4.7,27,0.00,,---,0.00,VWS V14.01,2013-06-21 18:38:00,
2013-06-21 11:48:00,82.4,45.1,30.06,SSW,202,2.9,6.0,27,0.00,,---,0.00,VWS V14.01,2013-06-21 18:48:00,
2013-06-21 11:53:00,82.6,44.3,30.06,SSW,202,3.6,4.3,26,0.00,,---,0.00,VWS V14.01,2013-06-21 18:53:00,
2013-06-21 11:58:00,83.3,44.9,30.06,SSE,158,2.9,4.0,26,0.00,,---,0.00,VWS V14.01,2013-06-21 18:58:00,
2013-06-21 12:03:00,85.1,45.4,30.06,WSW,248,2.2,4.3,25,0.00,,---,0.00,VWS V14.01,2013-06-21 19:03:00,
2013-06-21 12:08:00,83.7,42.0,30.06,SSE,158,1.3,5.8,23,0.00,,---,0.00,VWS V14.01,2013-06-21 19:08:00,
2013-06-21 12:18:00,86.4,43.1,30.06,SSW,202,1.1,5.6,22,0.00,,---,0.00,VWS V14.01,2013-06-21 19:18:00,
2013-06-21 12:24:00,86.2,42.9,30.06,SW,225,2.2,4.9,22,0.00,,---,0.00,VWS V14.01,2013-06-21 19:24:00,
2013-06-21 12:29:00,86.5,42.0,30.06,SW,225,1.6,4.3,21,0.00,,---,0.00,VWS V14.01,2013-06-21 19:29:00,
2013-06-21 12:38:00,86.0,40.3,30.06,WSW,248,2.7,5.8,20,0.00,,---,0.00,VWS V14.01,2013-06-21 19:38:00,
2013-06-21 12:43:00,86.0,39.0,30.06,SW,225,1.6,4.0,19,0.00,,---,0.00,VWS V14.01,2013-06-21 19:43:00,
2013-06-21 12:48:00,83.8,37.2,30.06,WSW,248,3.1,7.2,19,0.00,,---,0.00,VWS V14.01,2013-06-21 19:48:00,
2013-06-21 12:53:00,84.2,37.5,30.06,WNW,292,3.6,8.5,19,0.00,,---,0.00,VWS V14.01,2013-06-21 19:53:00,
2013-06-21 12:58:00,84.4,39.0,30.06,NNW,338,2.9,6.0,20,0.00,,---,0.00,VWS V14.01,2013-06-21 19:58:00,
2013-06-21 13:03:00,85.3,39.7,30.06,WSW,248,5.4,5.4,20,0.00,,---,0.00,VWS V14.01,2013-06-21 20:03:00,
2013-06-21 13:08:00,84.7,39.3,30.06,SW,225,5.8,5.8,20,0.00,,---,0.00,VWS V14.01,2013-06-21 20:08:00,
2013-06-21 13:13:00,84.6,39.1,30.06,SSE,158,4.0,6.3,20,0.00,,---,0.00,VWS V14.01,2013-06-21 20:13:00,
2013-06-21 13:18:00,83.7,38.4,30.06,SW,225,3.8,6.5,20,0.00,,---,0.00,VWS V14.01,2013-06-21 20:18:00,
2013-06-21 13:23:00,86.2,40.5,30.06,SE,135,2.9,3.8,20,0.00,,---,0.00,VWS V14.01,2013-06-21 20:23:00,
2013-06-21 13:33:00,85.3,39.7,30.06,WSW,248,7.2,7.2,20,0.00,,---,0.00,VWS V14.01,2013-06-21 20:33:00,
2013-06-21 13:53:00,85.6,38.7,30.06,WSW,248,1.1,5.6,19,0.00,,---,0.00,VWS V14.01,2013-06-21 20:53:00,
2013-06-21 13:58:00,86.0,39.0,30.06,NW,315,2.7,5.6,19,0.00,,---,0.00,VWS V14.01,2013-06-21 20:58:00,
2013-06-21 14:03:00,85.5,38.5,30.06,SW,225,1.1,5.8,19,0.00,,---,0.00,VWS V14.01,2013-06-21 21:03:00,
2013-06-21 14:08:00,86.9,39.7,30.06,North,0,2.0,3.8,19,0.00,,---,0.00,VWS V14.01,2013-06-21 21:08:00,
2013-06-21 14:18:00,85.8,38.8,30.06,SSW,202,4.0,6.0,19,0.00,,---,0.00,VWS V14.01,2013-06-21 21:18:00,
2013-06-21 14:23:00,85.6,40.0,30.06,WSW,248,4.0,6.5,20,0.00,,---,0.00,VWS V14.01,2013-06-21 21:23:00,
2013-06-21 14:28:00,86.4,39.3,30.06,WSW,248,2.9,4.3,19,0.00,,---,0.00,VWS V14.01,2013-06-21 21:28:00,
2013-06-21 14:33:00,86.2,39.1,30.06,SW,225,1.6,5.6,19,0.00,,---,0.00,VWS V14.01,2013-06-21 21:33:00,
2013-06-21 14:44:00,84.6,37.8,30.06,WSW,248,3.8,7.4,19,0.00,,---,0.00,VWS V14.01,2013-06-21 21:44:00,
2013-06-21 14:53:00,84.6,37.8,30.06,WSW,248,1.3,7.2,19,0.00,,---,0.00,VWS V14.01,2013-06-21 21:53:00,
2013-06-21 15:03:00,84.4,37.7,30.06,WNW,292,3.1,6.5,19,0.00,,---,0.00,VWS V14.01,2013-06-21 22:03:00,
2013-06-21 15:08:00,86.0,39.0,30.06,WSW,248,2.7,4.3,19,0.00,,---,0.00,VWS V14.01,2013-06-21 22:08:00,
2013-06-21 15:18:00,85.6,37.3,30.06,NE,45,2.7,5.4,18,0.00,,---,0.00,VWS V14.01,2013-06-21 22:18:00,
2013-06-21 15:28:00,83.7,37.1,30.06,WNW,292,4.0,6.3,19,0.00,,---,0.00,VWS V14.01,2013-06-21 22:28:00,
2013-06-21 15:33:00,82.9,36.5,30.06,SSE,158,5.6,8.7,19,0.00,,---,0.00,VWS V14.01,2013-06-21 22:33:00,
2013-06-21 15:38:00,82.4,36.0,30.03,SW,225,1.1,6.5,19,0.00,,---,0.00,VWS V14.01,2013-06-21 22:38:00,
2013-06-21 15:48:00,84.9,38.1,30.03,South,180,2.5,4.3,19,0.00,,---,0.00,VWS V14.01,2013-06-21 22:48:00,
2013-06-21 15:53:00,84.7,38.0,30.06,South,180,2.5,5.6,19,0.00,,---,0.00,VWS V14.01,2013-06-21 22:53:00,
2013-06-21 16:03:00,83.1,37.9,30.06,SSW,202,3.1,6.3,20,0.00,,---,0.00,VWS V14.01,2013-06-21 23:03:00,
2013-06-21 16:08:00,82.4,37.3,30.06,WSW,248,1.6,8.1,20,0.00,,---,0.00,VWS V14.01,2013-06-21 23:08:00,
2013-06-21 16:13:00,81.7,38.0,30.06,SSE,158,3.4,8.1,21,0.00,,---,0.00,VWS V14.01,2013-06-21 23:13:00,
2013-06-21 16:18:00,82.9,39.0,30.06,NNE,22,2.2,6.3,21,0.00,,---,0.00,VWS V14.01,2013-06-21 23:18:00,
2013-06-21 16:28:00,81.1,37.5,30.03,WSW,248,1.1,8.1,21,0.00,,---,0.00,VWS V14.01,2013-06-21 23:28:00,
2013-06-21 16:38:00,81.5,39.0,30.03,WSW,248,1.1,5.8,22,0.00,,---,0.00,VWS V14.01,2013-06-21 23:38:00,
2013-06-21 16:43:00,82.6,38.7,30.03,West,270,2.9,3.6,21,0.00,,---,0.00,VWS V14.01,2013-06-21 23:43:00,
2013-06-21 16:48:00,82.4,38.6,30.03,WSW,248,5.4,5.4,21,0.00,,---,0.00,VWS V14.01,2013-06-21 23:48:00,
2013-06-21 16:53:00,81.7,39.2,30.03,WSW,248,2.2,6.0,22,0.00,,---,0.00,VWS V14.01,2013-06-21 23:53:00,
2013-06-21 17:03:00,80.4,39.3,30.03,WSW,248,6.0,6.0,23,0.00,,---,0.00,VWS V14.01,2013-06-22 00:03:00,
2013-06-21 17:13:00,78.6,37.8,30.03,WSW,248,2.5,5.6,23,0.00,,---,0.00,VWS V14.01,2013-06-22 00:13:00,
2013-06-21 17:23:00,78.4,38.7,30.03,SSW,202,2.9,7.6,24,0.00,,---,0.00,VWS V14.01,2013-06-22 00:23:00,
2013-06-21 17:28:00,79.7,40.8,30.03,SSE,158,4.3,4.3,25,0.00,,---,0.00,VWS V14.01,2013-06-22 00:28:00,
2013-06-21 17:38:00,78.1,40.4,30.00,SW,225,0.0,5.4,26,0.00,,---,0.00,VWS V14.01,2013-06-22 00:38:00,
2013-06-21 17:48:00,77.0,40.5,30.00,West,270,2.9,4.9,27,0.00,,---,0.00,VWS V14.01,2013-06-22 00:48:00,
2013-06-21 17:58:00,77.0,40.5,30.00,WSW,248,3.1,4.0,27,0.00,,---,0.00,VWS V14.01,2013-06-22 00:58:00,
2013-06-21 18:03:00,76.6,42.0,30.00,SW,225,2.2,4.0,29,0.00,,---,0.00,VWS V14.01,2013-06-22 01:03:00,
2013-06-21 18:13:00,75.6,42.0,30.00,WSW,248,2.5,3.6,30,0.00,,---,0.00,VWS V14.01,2013-06-22 01:13:00,
2013-06-21 18:18:00,73.9,41.4,30.00,SW,225,1.1,3.4,31,0.00,,---,0.00,VWS V14.01,2013-06-22 01:18:00,
2013-06-21 18:23:00,72.1,40.7,30.00,SSW,202,2.5,5.4,32,0.00,,---,0.00,VWS V14.01,2013-06-22 01:23:00,
2013-06-21 18:33:00,69.8,40.2,30.00,WSW,248,1.6,4.5,34,0.00,,---,0.00,VWS V14.01,2013-06-22 01:33:00,
2013-06-21 18:38:00,69.3,41.2,30.00,WNW,292,2.9,5.4,36,0.00,,---,0.00,VWS V14.01,2013-06-22 01:38:00,
2013-06-21 18:48:00,67.6,41.2,30.00,WSW,248,2.7,3.8,38,0.00,,---,0.00,VWS V14.01,2013-06-22 01:48:00,
2013-06-21 18:58:00,66.6,40.9,30.00,SSW,202,0.9,4.5,39,0.00,,---,0.00,VWS V14.01,2013-06-22 01:58:00,
2013-06-21 19:08:00,65.5,43.0,30.00,WSW,248,2.7,6.0,44,0.00,,---,0.00,VWS V14.01,2013-06-22 02:08:00,
2013-06-21 19:13:00,65.1,42.7,30.00,WSW,248,1.1,3.6,44,0.00,,---,0.00,VWS V14.01,2013-06-22 02:13:00,
2013-06-21 19:23:00,64.2,43.0,30.00,SW,225,1.3,6.3,46,0.00,,---,0.00,VWS V14.01,2013-06-22 02:23:00,
2013-06-21 19:28:00,63.9,42.7,30.00,West,270,2.0,2.5,46,0.00,,---,0.00,VWS V14.01,2013-06-22 02:28:00,
2013-06-21 19:33:00,63.5,42.4,30.00,WSW,248,1.1,3.4,46,0.00,,---,0.00,VWS V14.01,2013-06-22 02:33:00,
2013-06-21 19:43:00,62.6,42.7,30.00,WSW,248,0.0,2.7,48,0.00,,---,0.00,VWS V14.01,2013-06-22 02:43:00,
2013-06-21 19:48:00,62.1,42.7,30.00,West,270,0.0,3.1,49,0.00,,---,0.00,VWS V14.01,2013-06-22 02:48:00,
2013-06-21 19:58:00,61.3,42.0,30.00,NW,315,0.0,3.4,49,0.00,,---,0.00,VWS V14.01,2013-06-22 02:58:00,
2013-06-21 20:03:00,61.0,43.2,30.00,WSW,248,3.1,4.3,52,0.00,,---,0.00,VWS V14.01,2013-06-22 03:03:00,
2013-06-21 20:08:00,60.4,43.2,30.00,West,270,0.0,3.1,53,0.00,,---,0.00,VWS V14.01,2013-06-22 03:08:00,
2013-06-21 20:13:00,60.1,42.9,30.00,NW,315,0.0,3.4,53,0.00,,---,0.00,VWS V14.01,2013-06-22 03:13:00,
2013-06-21 20:23:00,59.4,43.2,30.00,WSW,248,0.9,1.1,55,0.00,,---,0.00,VWS V14.01,2013-06-22 03:23:00,
2013-06-21 20:33:00,58.8,43.6,30.00,WSW,248,0.0,2.5,57,0.00,,---,0.00,VWS V14.01,2013-06-22 03:33:00,
2013-06-21 20:43:00,58.5,43.8,30.00,WSW,248,0.0,0.0,58,0.00,,---,0.00,VWS V14.01,2013-06-22 03:43:00,
2013-06-21 20:53:00,57.9,44.6,30.00,WSW,248,0.0,0.0,61,0.00,,---,0.00,VWS V14.01,2013-06-22 03:53:00,
2013-06-21 20:58:00,57.7,43.5,30.00,West,270,0.0,0.0,59,0.00,,---,0.00,VWS V14.01,2013-06-22 03:58:00,
2013-06-21 21:03:00,57.6,43.8,30.00,WSW,248,0.0,2.9,60,0.00,,---,0.00,VWS V14.01,2013-06-22 04:03:00,
2013-06-21 21:08:00,57.4,44.1,30.00,WSW,248,0.0,1.3,61,0.00,,---,0.00,VWS V14.01,2013-06-22 04:08:00,
2013-06-21 21:18:00,57.0,45.0,30.00,West,270,0.9,2.5,64,0.00,,---,0.00,VWS V14.01,2013-06-22 04:18:00,
2013-06-21 21:28:00,56.8,45.2,30.00,NW,315,0.0,0.0,65,0.00,,---,0.00,VWS V14.01,2013-06-22 04:28:00,
2013-06-21 21:33:00,56.8,45.6,30.00,West,270,0.0,2.5,66,0.00,,---,0.00,VWS V14.01,2013-06-22 04:33:00,
2013-06-21 21:38:00,56.8,46.0,30.00,WNW,292,1.6,2.7,67,0.00,,---,0.00,VWS V14.01,2013-06-22 04:38:00,
2013-06-21 21:43:00,56.7,45.4,30.00,West,270,2.0,2.2,66,0.00,,---,0.00,VWS V14.01,2013-06-22 04:43:00,
2013-06-21 21:53:00,56.3,45.1,30.00,WNW,292,0.0,1.6,66,0.00,,---,0.00,VWS V14.01,2013-06-22 04:53:00,
2013-06-21 22:03:00,56.3,45.9,30.00,WSW,248,0.0,1.6,68,0.00,,---,0.00,VWS V14.01,2013-06-22 05:03:00,
2013-06-21 22:08:00,56.1,45.7,30.00,WNW,292,0.0,1.1,68,0.00,,---,0.00,VWS V14.01,2013-06-22 05:08:00,
2013-06-21 22:13:00,56.1,45.7,30.00,WSW,248,0.0,2.2,68,0.00,,---,0.00,VWS V14.01,2013-06-22 05:13:00,
2013-06-21 22:18:00,55.9,45.9,30.00,WSW,248,0.0,0.9,69,0.00,,---,0.00,VWS V14.01,2013-06-22 05:18:00,
2013-06-21 22:28:00,55.2,45.2,30.00,WSW,248,0.0,0.0,69,0.00,,---,0.00,VWS V14.01,2013-06-22 05:28:00,
2013-06-21 22:38:00,54.9,45.3,30.00,WSW,248,0.0,0.0,70,0.00,,---,0.00,VWS V14.01,2013-06-22 05:38:00,
2013-06-21 22:43:00,54.7,44.7,30.00,WSW,248,0.0,0.0,69,0.00,,---,0.00,VWS V14.01,2013-06-22 05:43:00,
2013-06-21 22:53:00,54.9,45.7,30.00,SW,225,0.0,1.6,71,0.00,,---,0.00,VWS V14.01,2013-06-22 05:53:00,
2013-06-21 22:58:00,54.7,45.8,30.00,WSW,248,0.0,1.3,72,0.00,,---,0.00,VWS V14.01,2013-06-22 05:58:00,
2013-06-21 23:03:00,54.7,46.2,30.00,SW,225,0.0,1.3,73,0.00,,---,0.00,VWS V14.01,2013-06-22 06:03:00,
2013-06-21 23:13:00,54.5,46.0,30.00,South,180,0.0,0.0,73,0.00,,---,0.00,VWS V14.01,2013-06-22 06:13:00,
2013-06-21 23:18:00,54.5,46.0,30.00,SSE,158,0.0,2.0,73,0.00,,---,0.00,VWS V14.01,2013-06-22 06:18:00,
2013-06-21 23:23:00,54.5,46.4,30.00,SSW,202,0.0,0.0,74,0.00,,---,0.00,VWS V14.01,2013-06-22 06:23:00,
2013-06-21 23:28:00,54.5,46.4,30.00,SSW,202,0.0,0.0,74,0.00,,---,0.00,VWS V14.01,2013-06-22 06:28:00,
2013-06-21 23:38:00,54.7,46.9,30.03,SSW,202,0.0,2.2,75,0.00,,---,0.00,VWS V14.01,2013-06-22 06:38:00,
2013-06-21 23:48:00,54.5,47.1,30.03,SSE,158,0.0,3.1,76,0.00,,---,0.00,VWS V14.01,2013-06-22 06:48:00,
2013-06-21 23:53:00,54.5,47.5,30.00,SSE,158,0.0,3.1,77,0.00,,---,0.00,VWS V14.01,2013-06-22 06:53:00,
2013-06-21 23:58:00,54.5,47.5,30.00,SE,135,1.6,2.9,77,0.00,,---,0.00,VWS V14.01,2013-06-22 06:58:00,